Startpagina
METAR-TAF:

METAR-TAF

Vliegvelden :

Victoria Falls, Zimbabwe

breedte: 18-06S, lengte: 025-51E, hoogte: 1061 m

Actueel weer

Dit bericht is 28 minuten geleden gemaakt, om 10:00 UTC
Wind 4 kt uit variabele richting
Temperatuur 30°C
Vochtigheid 12%
Druk 1021 hPa
Zicht 10 km of meer
geen wolken onder 1500 m en geen cumulonimbus

METAR: FVFA 251000Z VRB04KT CAVOK 30/M03 Q1021 NOSIG

Tijdstip: 12:28 (10:28 UTC)


TAF: ontbreekt

Waarnemingen en weersverwachtingen van meer dan 4000 vliegvelden (METAR en TAF).

De beschikbare stations zijn de gele en rode punten op de kaart.

Ga met uw muis naar het station om de naam te zien.

Klik dan om waarnemingen en weersverwachtingen te zien.

kaart wijzigen: klik op de groene knoppen met een zwart kruis om in te zoomen, op de groene knop met een streepje om uit te zoomen of op de groene pijlen voor aangrenzende kaarten.


METAR-TAF: